createdAt,value
2023-04-24T00:00:46.440Z,26.68
2023-04-24T00:03:16.803Z,26.66
2023-04-24T00:05:47.026Z,26.66
2023-04-24T00:08:19.201Z,26.65
2023-04-24T00:10:49.663Z,26.64
2023-04-24T00:13:19.615Z,26.63
2023-04-24T00:15:50.001Z,26.63
2023-04-24T00:18:20.496Z,26.63
2023-04-24T00:20:50.838Z,26.61
2023-04-24T00:23:22.690Z,26.62
2023-04-24T00:25:52.849Z,26.60
2023-04-24T00:28:23.115Z,26.60
2023-04-24T00:30:53.192Z,26.59
2023-04-24T00:33:23.917Z,26.58
2023-04-24T00:35:53.518Z,26.58
2023-04-24T00:38:25.266Z,26.58
2023-04-24T00:40:55.410Z,26.56
2023-04-24T00:43:26.107Z,26.55
2023-04-24T00:45:56.419Z,26.54
2023-04-24T00:48:28.721Z,26.54
2023-04-24T00:51:00.142Z,26.53
2023-04-24T00:53:31.829Z,26.52
2023-04-24T00:56:03.089Z,26.52
2023-04-24T00:58:34.025Z,26.50
2023-04-24T01:01:04.044Z,26.50
2023-04-24T01:03:34.871Z,26.49
2023-04-24T01:06:04.796Z,26.49
2023-04-24T01:08:39.301Z,26.47
2023-04-24T01:11:09.217Z,26.45
2023-04-24T01:13:39.538Z,26.44
2023-04-24T01:16:09.336Z,26.43
2023-04-24T01:18:39.995Z,26.43
2023-04-24T01:21:12.356Z,26.41
2023-04-24T01:23:44.419Z,26.41
2023-04-24T01:26:15.643Z,26.39
2023-04-24T01:28:46.432Z,26.39
2023-04-24T01:31:17.102Z,26.37
2023-04-24T01:33:47.385Z,26.36
2023-04-24T01:36:19.736Z,26.35
2023-04-24T01:38:51.388Z,26.35
2023-04-24T01:41:22.042Z,26.32
2023-04-24T01:43:53.067Z,26.31
2023-04-24T01:46:23.684Z,26.28
2023-04-24T01:48:55.126Z,26.26
2023-04-24T01:51:25.364Z,26.23
2023-04-24T01:53:56.843Z,26.21
2023-04-24T01:56:27.885Z,26.18
2023-04-24T01:58:59.471Z,26.16
2023-04-24T02:01:29.241Z,26.14
2023-04-24T02:03:59.498Z,26.11
2023-04-24T02:06:29.525Z,26.10
2023-04-24T02:09:01.620Z,26.08
2023-04-24T02:11:31.708Z,26.07
2023-04-24T02:14:01.666Z,26.05
2023-04-24T02:16:34.363Z,26.06
2023-04-24T02:19:04.605Z,26.05
2023-04-24T02:21:34.631Z,26.03
2023-04-24T02:24:06.970Z,26.03
2023-04-24T02:26:37.209Z,26.01
2023-04-24T02:29:06.876Z,25.99
2023-04-24T02:31:37.248Z,25.98
2023-04-24T02:34:07.321Z,25.96
2023-04-24T02:36:37.533Z,25.94
2023-04-24T02:39:09.665Z,25.93
2023-04-24T02:41:39.785Z,25.92
2023-04-24T02:44:09.983Z,25.91
2023-04-24T02:46:39.851Z,25.90
2023-04-24T02:49:10.216Z,25.88
2023-04-24T02:51:42.431Z,25.86
2023-04-24T02:54:14.413Z,25.83
2023-04-24T02:56:44.716Z,25.81
2023-04-24T02:59:14.644Z,25.79
2023-04-24T03:01:44.854Z,25.78
2023-04-24T03:04:15.098Z,25.77
2023-04-24T03:06:44.874Z,25.76
2023-04-24T03:09:16.493Z,25.76
2023-04-24T03:11:46.695Z,25.75
2023-04-24T03:14:16.796Z,25.74
2023-04-24T03:16:47.256Z,25.73
2023-04-24T03:19:16.993Z,25.73
2023-04-24T03:21:47.779Z,25.72
2023-04-24T03:24:20.036Z,25.71
2023-04-24T03:26:50.076Z,25.71
2023-04-24T03:29:20.112Z,25.72
2023-04-24T03:31:50.422Z,25.71
2023-04-24T03:34:20.754Z,25.71
2023-04-24T03:36:50.970Z,25.70
2023-04-24T03:39:22.707Z,25.70
2023-04-24T03:41:52.975Z,25.69
2023-04-24T03:44:23.149Z,25.69
2023-04-24T03:46:53.327Z,25.70
2023-04-24T03:49:23.338Z,25.71
2023-04-24T03:51:53.926Z,25.70
2023-04-24T03:54:25.909Z,25.70
2023-04-24T03:56:56.279Z,25.70
2023-04-24T03:59:25.838Z,25.71
2023-04-24T04:01:56.300Z,25.72
2023-04-24T04:04:26.622Z,25.72
2023-04-24T04:06:57.122Z,25.71
2023-04-24T04:09:28.109Z,25.71
2023-04-24T04:11:58.167Z,25.71
2023-04-24T04:14:28.611Z,25.72
2023-04-24T04:16:58.941Z,25.71
2023-04-24T04:19:29.200Z,25.71
2023-04-24T04:21:59.323Z,25.72
2023-04-24T04:24:31.536Z,25.73
2023-04-24T04:27:01.928Z,25.72
2023-04-24T04:29:32.751Z,25.74
2023-04-24T04:32:04.087Z,25.75
2023-04-24T04:34:34.726Z,25.74
2023-04-24T04:37:05.113Z,25.75
2023-04-24T04:39:36.784Z,25.75
2023-04-24T04:42:08.167Z,25.76
2023-04-24T04:44:39.917Z,25.79
2023-04-24T04:47:10.442Z,25.80
2023-04-24T04:49:41.475Z,25.82
2023-04-24T04:52:11.362Z,25.84
2023-04-24T04:54:43.397Z,25.87
2023-04-24T04:57:13.473Z,25.88
2023-04-24T04:59:44.350Z,25.92
2023-04-24T05:02:14.898Z,25.95
2023-04-24T05:04:44.545Z,25.98
2023-04-24T05:07:14.388Z,26.00
2023-04-24T05:09:46.535Z,26.05
2023-04-24T05:12:16.562Z,26.10
2023-04-24T05:14:46.822Z,26.16
2023-04-24T05:17:17.013Z,26.22
2023-04-24T05:19:47.861Z,26.28
2023-04-24T05:22:19.067Z,26.34
2023-04-24T05:24:51.198Z,26.39
2023-04-24T05:27:21.245Z,26.40
2023-04-24T05:29:51.500Z,26.44
2023-04-24T05:32:21.415Z,26.49
2023-04-24T05:34:51.705Z,26.53
2023-04-24T05:37:21.447Z,26.59
2023-04-24T05:39:53.102Z,26.64
2023-04-24T05:42:23.209Z,26.68
2023-04-24T05:44:57.397Z,26.74
2023-04-24T05:47:28.385Z,26.80
2023-04-24T05:49:58.859Z,26.85
2023-04-24T05:52:28.744Z,26.93
2023-04-24T05:55:00.257Z,26.98
2023-04-24T05:57:30.387Z,27.03
2023-04-24T06:00:00.277Z,27.09
2023-04-24T06:02:34.021Z,27.16
2023-04-24T06:05:04.687Z,27.21
2023-04-24T06:07:35.943Z,27.27
2023-04-24T06:10:09.423Z,27.34
2023-04-24T06:12:39.342Z,27.38
2023-04-24T06:15:11.269Z,27.44
2023-04-24T06:17:41.557Z,27.48
2023-04-24T06:20:12.797Z,27.53
2023-04-24T06:22:43.296Z,27.57
2023-04-24T06:25:15.921Z,27.63
2023-04-24T06:27:45.991Z,27.67
2023-04-24T06:30:15.969Z,27.71
2023-04-24T06:32:46.557Z,27.76
2023-04-24T06:35:16.741Z,27.82
2023-04-24T06:37:47.360Z,27.87
2023-04-24T06:40:19.986Z,27.92
2023-04-24T06:42:49.626Z,27.98
2023-04-24T06:45:20.145Z,28.04
2023-04-24T06:47:50.581Z,28.09
2023-04-24T06:50:21.017Z,28.14
2023-04-24T06:52:50.769Z,28.19
2023-04-24T06:55:22.524Z,28.25
2023-04-24T06:57:52.836Z,28.29
2023-04-24T07:00:25.593Z,28.33
2023-04-24T07:02:55.640Z,28.37
2023-04-24T07:05:26.174Z,28.43
2023-04-24T07:07:56.444Z,28.47
2023-04-24T07:10:30.105Z,28.50
2023-04-24T07:12:59.971Z,28.54
2023-04-24T07:15:30.084Z,28.58
2023-04-24T07:18:01.239Z,28.61
2023-04-24T07:20:31.835Z,28.64
2023-04-24T07:23:02.040Z,28.69
2023-04-24T07:25:34.350Z,28.73
2023-04-24T07:28:05.928Z,28.77
2023-04-24T07:30:36.035Z,28.80
2023-04-24T07:33:05.858Z,28.82
2023-04-24T07:35:37.609Z,28.85
2023-04-24T07:38:07.820Z,28.87
2023-04-24T07:40:40.002Z,28.90
2023-04-24T07:43:09.863Z,28.93
2023-04-24T07:45:42.752Z,28.96
2023-04-24T07:48:13.322Z,28.98
2023-04-24T07:50:43.461Z,29.00
2023-04-24T07:53:13.740Z,29.02
2023-04-24T07:55:45.778Z,29.05
2023-04-24T07:58:16.622Z,29.07
2023-04-24T08:00:46.427Z,29.07
2023-04-24T08:03:19.886Z,29.11
2023-04-24T08:05:52.832Z,29.13
2023-04-24T08:08:25.645Z,29.15
2023-04-24T08:10:58.146Z,29.18
2023-04-24T08:13:28.497Z,29.20
2023-04-24T08:15:59.917Z,29.22
2023-04-24T08:18:30.219Z,29.24
2023-04-24T08:21:02.745Z,29.26
2023-04-24T08:23:32.991Z,29.29
2023-04-24T08:26:05.062Z,29.31
2023-04-24T08:28:35.121Z,29.33
2023-04-24T08:31:05.267Z,29.35
2023-04-24T08:33:36.314Z,29.36
2023-04-24T08:36:07.665Z,29.38
2023-04-24T08:38:38.367Z,29.38
2023-04-24T08:41:12.389Z,29.41
2023-04-24T08:43:43.959Z,29.43
2023-04-24T08:46:16.865Z,29.46
2023-04-24T08:48:47.649Z,29.48
2023-04-24T08:51:18.463Z,29.51
2023-04-24T08:53:49.884Z,29.55
2023-04-24T08:56:23.123Z,29.57
2023-04-24T08:58:54.909Z,29.60
2023-04-24T09:01:28.424Z,29.62
2023-04-24T09:03:59.759Z,29.63
2023-04-24T09:06:30.401Z,29.64
2023-04-24T09:09:03.529Z,29.67
2023-04-24T09:11:35.972Z,29.68
2023-04-24T09:14:06.961Z,29.70
2023-04-24T09:16:37.432Z,29.71
2023-04-24T09:19:07.607Z,29.72
2023-04-24T09:21:39.312Z,29.73
2023-04-24T09:24:18.953Z,29.74
2023-04-24T09:26:50.480Z,29.74
2023-04-24T09:29:21.889Z,29.75
2023-04-24T09:31:52.172Z,29.75
2023-04-24T09:34:27.143Z,29.77
2023-04-24T09:36:58.512Z,29.77
2023-04-24T09:39:28.469Z,29.77
2023-04-24T09:42:02.061Z,29.78
2023-04-24T09:44:33.552Z,29.78
2023-04-24T09:47:04.161Z,29.79
2023-04-24T09:49:34.803Z,29.79
2023-04-24T09:52:09.206Z,29.80
2023-04-24T09:54:39.959Z,29.80
2023-04-24T09:57:11.810Z,29.82
2023-04-24T09:59:49.480Z,29.82
2023-04-24T10:02:23.635Z,29.82
2023-04-24T10:05:01.327Z,29.82
2023-04-24T10:07:31.343Z,29.81
2023-04-24T10:10:02.897Z,29.84
2023-04-24T10:12:34.913Z,29.86
2023-04-24T10:15:07.205Z,29.87
2023-04-24T10:17:38.578Z,29.88
2023-04-24T10:20:10.989Z,29.90
2023-04-24T10:22:41.756Z,29.90
2023-04-24T10:25:12.862Z,29.91
2023-04-24T10:27:45.053Z,29.93
2023-04-24T10:30:17.663Z,29.94
2023-04-24T10:32:48.064Z,29.95
2023-04-24T10:35:23.747Z,29.96
2023-04-24T10:38:00.471Z,29.97
2023-04-24T10:40:35.851Z,29.98
2023-04-24T10:43:11.073Z,29.97
2023-04-24T10:45:42.128Z,29.97
2023-04-24T10:48:15.300Z,29.95
2023-04-24T10:50:51.219Z,29.95
2023-04-24T10:53:24.719Z,29.93
2023-04-24T10:56:01.116Z,29.92
2023-04-24T10:58:46.322Z,29.90
2023-04-24T11:01:29.610Z,29.91
2023-04-24T11:04:01.992Z,29.90
2023-04-24T11:06:37.246Z,29.89
2023-04-24T11:09:09.835Z,29.89
2023-04-24T11:11:43.076Z,29.89
2023-04-24T11:14:18.074Z,29.90
2023-04-24T11:16:55.542Z,29.89
2023-04-24T11:19:27.925Z,29.88
2023-04-24T11:22:03.372Z,29.89
2023-04-24T11:24:40.547Z,29.89
2023-04-24T11:27:18.602Z,29.89
2023-04-24T11:29:53.106Z,29.90
2023-04-24T11:32:32.060Z,29.90
2023-04-24T11:35:04.860Z,29.91
2023-04-24T11:37:40.032Z,29.92
2023-04-24T11:40:13.650Z,29.92
2023-04-24T11:42:45.537Z,29.91
2023-04-24T11:45:21.850Z,29.91
2023-04-24T11:47:52.176Z,29.91
2023-04-24T11:50:29.146Z,29.91
2023-04-24T11:53:01.702Z,29.90
2023-04-24T11:55:32.652Z,29.90
2023-04-24T11:58:03.059Z,29.90
2023-04-24T12:00:36.930Z,29.89
2023-04-24T12:03:11.705Z,29.89
2023-04-24T12:05:42.752Z,29.88
2023-04-24T12:08:12.984Z,29.87
2023-04-24T12:10:43.403Z,29.87
2023-04-24T12:13:14.406Z,29.86
2023-04-24T12:15:46.754Z,29.85
2023-04-24T12:18:23.528Z,29.84
2023-04-24T12:20:53.894Z,29.83
2023-04-24T12:23:38.677Z,29.81
2023-04-24T12:26:09.312Z,29.79
2023-04-24T12:28:40.273Z,29.79
2023-04-24T12:31:12.913Z,29.78
2023-04-24T12:33:42.707Z,29.77
2023-04-24T12:36:17.405Z,29.76
2023-04-24T12:38:47.965Z,29.75
2023-04-24T12:41:19.858Z,29.74
2023-04-24T12:43:57.472Z,29.72
2023-04-24T12:46:29.353Z,29.71
2023-04-24T12:48:59.978Z,29.69
2023-04-24T12:51:29.851Z,29.68
2023-04-24T12:54:00.877Z,29.67
2023-04-24T12:56:32.159Z,29.64
2023-04-24T12:59:02.344Z,29.64
2023-04-24T13:01:34.184Z,29.62
2023-04-24T13:04:04.544Z,29.62
2023-04-24T13:06:34.655Z,29.59
2023-04-24T13:09:05.089Z,29.58
2023-04-24T13:11:34.911Z,29.56
2023-04-24T13:14:04.898Z,29.55
2023-04-24T13:16:36.521Z,29.54
2023-04-24T13:19:07.475Z,29.52
2023-04-24T13:21:37.096Z,29.51
2023-04-24T13:24:09.110Z,29.50
2023-04-24T13:26:39.192Z,29.49
2023-04-24T13:29:09.381Z,29.48
2023-04-24T13:31:41.730Z,29.48
2023-04-24T13:34:12.168Z,29.47
2023-04-24T13:36:42.308Z,29.47
2023-04-24T13:39:12.662Z,29.46
2023-04-24T13:41:43.436Z,29.45
2023-04-24T13:44:13.347Z,29.43
2023-04-24T13:46:46.148Z,29.42
2023-04-24T13:49:17.692Z,29.39
2023-04-24T13:51:48.737Z,29.36
2023-04-24T13:54:19.048Z,29.35
2023-04-24T13:56:48.931Z,29.32
2023-04-24T13:59:19.117Z,29.31
2023-04-24T14:01:51.030Z,29.31
2023-04-24T14:04:21.288Z,29.28
2023-04-24T14:06:51.947Z,29.27
2023-04-24T14:09:22.173Z,29.24
2023-04-24T14:11:52.048Z,29.23
2023-04-24T14:14:22.673Z,29.22
2023-04-24T14:16:54.952Z,29.21
2023-04-24T14:19:25.244Z,29.18
2023-04-24T14:21:57.031Z,29.16
2023-04-24T14:24:27.167Z,29.15
2023-04-24T14:26:57.823Z,29.14
2023-04-24T14:29:27.388Z,29.12
2023-04-24T14:31:59.367Z,29.11
2023-04-24T14:34:29.703Z,29.09
2023-04-24T14:37:00.374Z,29.09
2023-04-24T14:39:31.917Z,29.07
2023-04-24T14:42:02.431Z,29.04
2023-04-24T14:44:32.430Z,29.03
2023-04-24T14:47:05.111Z,29.00
2023-04-24T14:49:35.564Z,28.98
2023-04-24T14:52:05.495Z,28.97
2023-04-24T14:54:35.306Z,28.95
2023-04-24T14:57:05.600Z,28.94
2023-04-24T14:59:36.041Z,28.93
2023-04-24T15:02:15.400Z,28.92
2023-04-24T15:04:47.149Z,28.91
2023-04-24T15:07:17.701Z,28.90
2023-04-24T15:09:48.451Z,28.90
2023-04-24T15:12:18.865Z,28.89
2023-04-24T15:14:48.971Z,28.87
2023-04-24T15:17:20.666Z,28.87
2023-04-24T15:19:50.839Z,28.85
2023-04-24T15:22:21.446Z,28.84
2023-04-24T15:24:51.471Z,28.82
2023-04-24T15:27:21.856Z,28.82
2023-04-24T15:29:52.159Z,28.80
2023-04-24T15:32:24.403Z,28.80
2023-04-24T15:35:07.043Z,28.78
2023-04-24T15:37:38.783Z,28.75
2023-04-24T15:40:11.808Z,28.75
2023-04-24T15:42:41.584Z,28.73
2023-04-24T15:45:13.089Z,28.72
2023-04-24T15:47:44.968Z,28.71
2023-04-24T15:50:17.436Z,28.68
2023-04-24T15:52:48.929Z,28.66
2023-04-24T15:55:19.466Z,28.64
2023-04-24T15:57:50.105Z,28.63
2023-04-24T16:00:21.789Z,28.62
2023-04-24T16:02:54.100Z,28.60
2023-04-24T16:05:25.037Z,28.58
2023-04-24T16:07:55.553Z,28.57
2023-04-24T16:10:25.507Z,28.55
2023-04-24T16:12:56.240Z,28.54
2023-04-24T16:15:26.366Z,28.51
2023-04-24T16:17:58.309Z,28.51
2023-04-24T16:20:28.974Z,28.48
2023-04-24T16:22:59.514Z,28.46
2023-04-24T16:25:29.842Z,28.44
2023-04-24T16:28:00.336Z,28.42
2023-04-24T16:30:30.566Z,28.39
2023-04-24T16:33:07.764Z,28.38
2023-04-24T16:35:38.232Z,28.36
2023-04-24T16:38:08.185Z,28.34
2023-04-24T16:40:38.651Z,28.31
2023-04-24T16:43:09.076Z,28.30
2023-04-24T16:45:39.400Z,28.29
2023-04-24T16:48:11.833Z,28.28
2023-04-24T16:50:42.017Z,28.25
2023-04-24T16:53:12.667Z,28.25
2023-04-24T16:55:42.859Z,28.23
2023-04-24T16:58:12.833Z,28.22
2023-04-24T17:00:43.243Z,28.19
2023-04-24T17:03:16.368Z,28.18
2023-04-24T17:05:47.229Z,28.16
2023-04-24T17:08:17.660Z,28.13
2023-04-24T17:10:47.980Z,28.12
2023-04-24T17:13:18.310Z,28.10
2023-04-24T17:15:48.587Z,28.10
2023-04-24T17:18:20.929Z,28.07
2023-04-24T17:20:51.469Z,28.05
2023-04-24T17:23:22.836Z,28.04
2023-04-24T17:25:53.229Z,28.01
2023-04-24T17:28:30.063Z,28.00
2023-04-24T17:31:03.020Z,27.99
2023-04-24T17:33:35.377Z,27.97
2023-04-24T17:36:07.206Z,27.95
2023-04-24T17:38:37.638Z,27.94
2023-04-24T17:41:08.263Z,27.92
2023-04-24T17:43:38.397Z,27.91
2023-04-24T17:46:08.834Z,27.89
2023-04-24T17:48:42.503Z,27.87
2023-04-24T17:51:12.833Z,27.86
2023-04-24T17:53:43.176Z,27.85
2023-04-24T17:56:13.671Z,27.84
2023-04-24T17:58:44.095Z,27.82
2023-04-24T18:01:14.139Z,27.80
2023-04-24T18:03:47.239Z,27.79
2023-04-24T18:06:19.265Z,27.78
2023-04-24T18:08:50.069Z,27.76
2023-04-24T18:11:20.757Z,27.75
2023-04-24T18:13:51.886Z,27.74
2023-04-24T18:16:23.175Z,27.72
2023-04-24T18:18:56.458Z,27.70
2023-04-24T18:21:27.153Z,27.68
2023-04-24T18:24:00.693Z,27.68
2023-04-24T18:26:31.693Z,27.67
2023-04-24T18:29:01.412Z,27.65
2023-04-24T18:31:33.505Z,27.64
2023-04-24T18:34:05.479Z,27.63
2023-04-24T18:36:35.746Z,27.61
2023-04-24T18:39:06.203Z,27.60
2023-04-24T18:41:37.069Z,27.58
2023-04-24T18:44:07.201Z,27.57
2023-04-24T18:46:41.795Z,27.56
2023-04-24T18:49:14.193Z,27.55
2023-04-24T18:51:53.907Z,27.53
2023-04-24T18:54:24.757Z,27.52
2023-04-24T18:56:56.245Z,27.50
2023-04-24T18:59:27.836Z,27.50
2023-04-24T19:01:58.387Z,27.49
2023-04-24T19:04:31.788Z,27.47
2023-04-24T19:07:01.670Z,27.46
2023-04-24T19:09:32.163Z,27.45
2023-04-24T19:12:03.324Z,27.44
2023-04-24T19:14:33.547Z,27.42
2023-04-24T19:17:10.143Z,27.41
2023-04-24T19:19:42.581Z,27.40
2023-04-24T19:22:13.093Z,27.38
2023-04-24T19:24:43.529Z,27.37
2023-04-24T19:27:14.281Z,27.37
2023-04-24T19:29:44.343Z,27.35
2023-04-24T19:32:14.937Z,27.35
2023-04-24T19:34:47.515Z,27.33
2023-04-24T19:37:19.704Z,27.32
2023-04-24T19:39:50.152Z,27.31
2023-04-24T19:42:28.505Z,27.31
2023-04-24T19:45:07.182Z,27.29
2023-04-24T19:47:37.395Z,27.28
2023-04-24T19:50:10.962Z,27.28
2023-04-24T19:52:41.820Z,27.26
2023-04-24T19:55:12.874Z,27.25
2023-04-24T19:57:42.974Z,27.25
2023-04-24T20:00:15.318Z,27.24
2023-04-24T20:02:45.688Z,27.23
2023-04-24T20:05:17.916Z,27.22
2023-04-24T20:07:48.405Z,27.20
2023-04-24T20:10:19.050Z,27.20
2023-04-24T20:12:48.710Z,27.18
2023-04-24T20:15:18.637Z,27.17
2023-04-24T20:17:49.180Z,27.15
2023-04-24T20:20:21.172Z,27.13
2023-04-24T20:22:51.514Z,27.11
2023-04-24T20:25:21.952Z,27.10
2023-04-24T20:27:52.474Z,27.08
2023-04-24T20:30:22.967Z,27.06
2023-04-24T20:32:53.398Z,27.06
2023-04-24T20:35:25.500Z,27.05
2023-04-24T20:37:55.459Z,27.03
2023-04-24T20:40:26.755Z,27.03
2023-04-24T20:42:58.048Z,27.01
2023-04-24T20:45:28.722Z,27.01
2023-04-24T20:47:58.656Z,27.00
2023-04-24T20:50:31.003Z,26.99
2023-04-24T20:53:01.324Z,26.96
2023-04-24T20:55:31.563Z,26.94
2023-04-24T20:58:02.557Z,26.93
2023-04-24T21:00:32.818Z,26.91
2023-04-24T21:03:03.394Z,26.88
2023-04-24T21:05:35.391Z,26.87
2023-04-24T21:08:05.717Z,26.87
2023-04-24T21:10:35.381Z,26.87
2023-04-24T21:13:05.025Z,26.85
2023-04-24T21:15:36.278Z,26.85
2023-04-24T21:18:07.947Z,26.85
2023-04-24T21:20:40.377Z,26.84
2023-04-24T21:23:10.789Z,26.83
2023-04-24T21:25:41.685Z,26.83
2023-04-24T21:28:11.844Z,26.82
2023-04-24T21:30:42.341Z,26.79
2023-04-24T21:33:13.032Z,26.77
2023-04-24T21:35:44.584Z,26.77
2023-04-24T21:38:15.005Z,26.75
2023-04-24T21:40:44.831Z,26.73
2023-04-24T21:43:14.859Z,26.73
2023-04-24T21:45:45.495Z,26.71
2023-04-24T21:48:15.983Z,26.71
2023-04-24T21:50:48.363Z,26.70
2023-04-24T21:53:18.615Z,26.70
2023-04-24T21:55:49.283Z,26.70
2023-04-24T21:58:19.713Z,26.69
2023-04-24T22:00:49.566Z,26.68
2023-04-24T22:03:19.734Z,26.67
2023-04-24T22:05:52.005Z,26.65
2023-04-24T22:08:22.355Z,26.65
2023-04-24T22:10:55.168Z,26.62
2023-04-24T22:13:25.598Z,26.60
2023-04-24T22:15:55.457Z,26.57
2023-04-24T22:18:33.344Z,26.54
2023-04-24T22:21:12.618Z,26.51
2023-04-24T22:23:43.007Z,26.48
2023-04-24T22:26:13.549Z,26.45
2023-04-24T22:28:43.674Z,26.41
2023-04-24T22:31:14.213Z,26.39
2023-04-24T22:33:44.621Z,26.37
2023-04-24T22:36:17.317Z,26.36
2023-04-24T22:38:47.500Z,26.35
2023-04-24T22:41:17.890Z,26.35
2023-04-24T22:43:48.783Z,26.33
2023-04-24T22:46:19.446Z,26.34
2023-04-24T22:48:49.579Z,26.33
2023-04-24T22:51:21.773Z,26.31
2023-04-24T22:53:52.091Z,26.30
2023-04-24T22:56:22.175Z,26.29
2023-04-24T22:58:52.551Z,26.27
2023-04-24T23:01:23.269Z,26.27
2023-04-24T23:03:54.049Z,26.26
2023-04-24T23:06:27.166Z,26.23
2023-04-24T23:08:57.484Z,26.19
2023-04-24T23:11:27.870Z,26.16
2023-04-24T23:13:58.304Z,26.12
2023-04-24T23:16:28.616Z,26.09
2023-04-24T23:18:59.599Z,26.08
2023-04-24T23:21:31.548Z,26.05
2023-04-24T23:24:02.052Z,26.06
2023-04-24T23:26:32.314Z,26.04
2023-04-24T23:29:02.506Z,26.04
2023-04-24T23:31:32.950Z,26.04
2023-04-24T23:34:03.174Z,26.03
2023-04-24T23:36:36.046Z,26.03
2023-04-24T23:39:07.296Z,26.01
2023-04-24T23:41:37.967Z,26.00
2023-04-24T23:44:08.482Z,25.99
2023-04-24T23:46:38.882Z,25.99
2023-04-24T23:49:09.603Z,25.98
2023-04-24T23:51:41.964Z,25.97
2023-04-24T23:54:13.294Z,25.96
2023-04-24T23:56:43.037Z,25.92
2023-04-24T23:59:12.660Z,25.89
